Time;durP1;ratioP1;P1;durP2;ratioP2;P2;SDS_P1;SDS_P2;PMS_P1;PMS_P2;Temp;Humidity;BMP_temperature;BMP_pressure;BME280_temperature;BME280_humidity;BME280_pressure;Samples;Min_cycle;Max_cycle;Signal;HPM_P1;HPM_P2
2022/05/08 00:01:42;;;;;;;6.37;5.20;;;13.30;99.90;;;;;;5088228;28;20443;-77
2022/05/08 00:04:28;;;;;;;7.10;6.40;;;13.20;99.90;;;;;;5084332;28;20470;-75
2022/05/08 00:07:13;;;;;;;5.10;4.50;;;13.00;99.90;;;;;;5086966;28;20543;-77
2022/05/08 00:09:59;;;;;;;6.30;5.00;;;13.00;99.90;;;;;;5088461;28;20437;-76
2022/05/08 00:12:46;;;;;;;6.47;5.87;;;13.00;99.90;;;;;;5088492;28;20427;-75
2022/05/08 00:15:32;;;;;;;7.33;5.57;;;13.00;99.90;;;;;;5089455;28;20465;-76
2022/05/08 00:18:18;;;;;;;7.17;5.77;;;13.10;99.90;;;;;;5091570;28;20870;-75
2022/05/08 00:21:05;;;;;;;5.80;5.10;;;13.10;99.90;;;;;;5089067;28;20972;-76
2022/05/08 00:23:50;;;;;;;8.20;5.33;;;13.10;99.90;;;;;;5085971;28;20607;-76
2022/05/08 00:26:36;;;;;;;10.87;5.70;;;13.00;99.90;;;;;;5101743;28;20443;-75
2022/05/08 00:29:24;;;;;;;7.40;5.80;;;13.00;99.90;;;;;;5093928;28;20628;-76
2022/05/08 00:32:10;;;;;;;6.50;5.33;;;13.00;99.90;;;;;;5099546;28;20520;-76
2022/05/08 00:34:56;;;;;;;8.03;5.00;;;12.90;99.90;;;;;;5094028;28;20428;-76
2022/05/08 00:37:41;;;;;;;6.30;4.80;;;12.90;99.90;;;;;;5104519;28;20474;-76
2022/05/08 00:40:27;;;;;;;6.10;5.10;;;12.80;99.90;;;;;;5089559;28;20446;-76
2022/05/08 00:43:27;;;;;;;7.13;6.20;;;12.80;99.90;;;;;;5094208;28;20427;-75
2022/05/08 00:46:16;;;;;;;11.33;5.60;;;12.80;99.90;;;;;;5099280;28;20559;-76
2022/05/08 00:49:01;;;;;;;7.30;5.83;;;12.80;99.90;;;;;;5098193;28;20464;-76
2022/05/08 00:51:49;;;;;;;6.53;5.83;;;12.70;99.90;;;;;;5094932;28;20437;-77
2022/05/08 00:54:35;;;;;;;9.83;5.90;;;12.60;99.90;;;;;;5088726;28;20484;-75
2022/05/08 00:57:21;;;;;;;20.83;5.57;;;12.60;99.90;;;;;;5098691;28;20776;-75
2022/05/08 01:00:08;;;;;;;7.77;5.37;;;12.60;99.90;;;;;;5085122;28;20458;-75
2022/05/08 01:02:57;;;;;;;7.40;5.47;;;12.50;99.90;;;;;;5082510;28;20813;-75
2022/05/08 01:05:42;;;;;;;7.50;6.13;;;12.50;99.90;;;;;;5081070;28;20463;-75
2022/05/08 01:08:28;;;;;;;8.10;6.20;;;12.40;99.90;;;;;;5091529;28;20537;-75
2022/05/08 01:11:15;;;;;;;7.13;5.53;;;12.40;99.90;;;;;;5103719;28;20924;-75
2022/05/08 01:14:00;;;;;;;8.10;6.67;;;12.40;99.90;;;;;;5082850;28;20541;-75
2022/05/08 01:16:46;;;;;;;6.70;5.73;;;12.50;99.90;;;;;;5102988;28;20425;-75
2022/05/08 01:19:33;;;;;;;5.80;5.20;;;12.50;99.90;;;;;;5089403;28;20491;-75
2022/05/08 01:22:20;;;;;;;13.10;6.40;;;12.60;99.90;;;;;;5091786;28;21196;-75
2022/05/08 01:25:07;;;;;;;18.40;6.63;;;12.60;99.90;;;;;;5080867;28;20465;-75
2022/05/08 01:27:53;;;;;;;7.60;6.20;;;12.50;99.90;;;;;;5084625;28;20466;-75
2022/05/08 01:30:40;;;;;;;7.73;6.87;;;12.50;99.90;;;;;;5083061;28;20424;-75
2022/05/08 01:33:26;;;;;;;9.40;6.60;;;12.50;99.90;;;;;;5076543;28;20451;-75
2022/05/08 01:36:12;;;;;;;8.60;6.90;;;12.40;99.90;;;;;;5091300;28;20554;-75
2022/05/08 01:38:58;;;;;;;6.90;6.13;;;12.40;99.90;;;;;;5087413;28;20419;-75
2022/05/08 01:41:44;;;;;;;7.23;6.53;;;12.30;99.90;;;;;;5084793;28;20437;-75
2022/05/08 01:44:30;;;;;;;6.33;5.73;;;12.40;99.90;;;;;;5086505;28;21007;-75
2022/05/08 01:50:19;;;;;;;7.90;6.27;;;12.50;99.90;;;;;;5079608;28;20465;-75
2022/05/08 01:53:05;;;;;;;8.30;6.80;;;12.50;99.90;;;;;;5083834;28;20441;-75
2022/05/08 01:55:54;;;;;;;7.40;6.70;;;12.50;99.90;;;;;;5087130;28;20921;-75
2022/05/08 01:58:40;;;;;;;8.17;6.40;;;12.40;99.90;;;;;;5087834;28;20903;-75
2022/05/08 02:01:25;;;;;;;10.50;6.63;;;12.30;99.90;;;;;;5081337;28;20421;-75
2022/05/08 02:04:15;;;;;;;8.83;7.17;;;12.40;99.90;;;;;;5092275;28;20541;-75
2022/05/08 02:07:01;;;;;;;7.23;6.53;;;12.40;99.90;;;;;;5090117;28;20430;-75
2022/05/08 02:09:46;;;;;;;8.43;6.50;;;12.40;99.90;;;;;;5085665;28;20464;-75
2022/05/08 02:12:34;;;;;;;6.10;5.50;;;12.50;99.90;;;;;;5085647;28;20821;-75
2022/05/08 02:15:20;;;;;;;6.90;6.20;;;12.50;99.90;;;;;;5089822;28;20465;-75
2022/05/08 02:18:07;;;;;;;7.00;5.70;;;12.50;99.90;;;;;;5089131;28;20419;-75
2022/05/08 02:20:52;;;;;;;13.30;6.70;;;12.30;99.90;;;;;;5088328;28;20448;-75
2022/05/08 02:23:38;;;;;;;8.77;6.80;;;12.30;99.90;;;;;;5087531;28;20432;-75
2022/05/08 02:26:24;;;;;;;8.60;6.47;;;12.20;99.90;;;;;;5095776;28;20416;-75
2022/05/08 02:29:11;;;;;;;7.27;6.20;;;12.10;99.90;;;;;;5092015;28;20457;-75
2022/05/08 02:31:57;;;;;;;9.30;7.63;;;12.10;99.90;;;;;;5086283;28;20420;-75
2022/05/08 02:34:43;;;;;;;7.67;6.97;;;12.10;99.90;;;;;;5088166;28;20447;-75
2022/05/08 02:37:28;;;;;;;7.60;6.80;;;12.00;99.90;;;;;;5099377;28;20425;-75
2022/05/08 02:40:14;;;;;;;8.20;6.97;;;12.00;99.90;;;;;;5083087;28;20424;-75
2022/05/08 02:43:00;;;;;;;9.67;7.77;;;12.10;99.90;;;;;;5090485;28;20446;-75
2022/05/08 02:45:47;;;;;;;8.30;7.47;;;12.00;99.90;;;;;;5100850;28;20491;-75
2022/05/08 02:48:32;;;;;;;7.90;7.10;;;12.00;99.90;;;;;;5095649;28;20436;-75
2022/05/08 02:51:18;;;;;;;8.23;6.60;;;11.90;99.90;;;;;;5087087;28;20507;-75
2022/05/08 02:54:04;;;;;;;11.53;7.30;;;11.90;99.90;;;;;;5093495;28;20415;-75
2022/05/08 02:59:53;;;;;;;8.27;7.23;;;11.80;99.90;;;;;;5090484;28;20580;-75
2022/05/08 03:02:40;;;;;;;7.53;6.73;;;11.80;99.90;;;;;;5092506;28;20443;-75
2022/05/08 03:05:26;;;;;;;8.57;7.03;;;11.90;99.90;;;;;;5087216;28;20507;-75
2022/05/08 03:08:14;;;;;;;10.53;7.30;;;11.90;99.90;;;;;;5086439;28;20436;-75
2022/05/08 03:14:04;;;;;;;8.80;7.90;;;11.80;99.90;;;;;;5092130;28;20479;-75
2022/05/08 03:16:50;;;;;;;9.60;7.43;;;11.90;99.90;;;;;;5100844;28;21024;-75
2022/05/08 03:19:37;;;;;;;11.10;8.00;;;11.90;99.90;;;;;;5085511;28;20425;-75
2022/05/08 03:22:23;;;;;;;10.93;8.50;;;11.90;99.90;;;;;;5081658;28;20434;-75
2022/05/08 03:25:09;;;;;;;8.90;7.93;;;11.90;99.90;;;;;;5084759;28;20432;-75
2022/05/08 03:27:55;;;;;;;8.53;7.73;;;11.90;99.90;;;;;;5087717;28;20415;-75
2022/05/08 03:30:41;;;;;;;7.60;6.80;;;11.90;99.90;;;;;;5092095;28;20452;-75
2022/05/08 03:33:27;;;;;;;10.80;7.80;;;11.80;99.90;;;;;;5090564;28;20428;-75
2022/05/08 03:36:14;;;;;;;10.07;7.27;;;11.80;99.90;;;;;;5091286;28;20395;-75
2022/05/08 03:39:00;;;;;;;9.20;8.20;;;11.80;99.90;;;;;;5079706;28;20896;-75
2022/05/08 03:41:45;;;;;;;8.83;7.93;;;11.70;99.90;;;;;;5092183;28;20446;-75
2022/05/08 03:44:31;;;;;;;9.67;8.70;;;11.80;99.90;;;;;;5089661;28;20453;-75
2022/05/08 03:47:16;;;;;;;9.47;8.47;;;11.80;99.90;;;;;;5085653;28;20421;-75
2022/05/08 03:50:04;;;;;;;10.70;7.90;;;11.80;99.90;;;;;;5080115;28;20455;-75
2022/05/08 03:52:51;;;;;;;8.07;7.03;;;11.80;99.90;;;;;;5090935;28;20940;-75
2022/05/08 03:55:37;;;;;;;10.23;8.53;;;11.70;99.90;;;;;;5098649;28;20473;-76
2022/05/08 03:58:23;;;;;;;11.70;8.30;;;11.70;99.90;;;;;;5087640;28;20442;-75
2022/05/08 04:01:09;;;;;;;10.03;7.60;;;11.50;99.90;;;;;;5085468;28;20427;-75
2022/05/08 04:03:55;;;;;;;11.93;8.10;;;11.60;99.90;;;;;;5087049;28;20439;-75
2022/05/08 04:06:41;;;;;;;9.13;8.07;;;11.60;99.90;;;;;;5090800;28;20465;-75
2022/05/08 04:09:29;;;;;;;9.30;8.30;;;11.60;99.90;;;;;;5086098;28;21091;-75
2022/05/08 04:12:14;;;;;;;10.20;8.37;;;11.50;99.90;;;;;;5084694;28;20922;-75
2022/05/08 04:15:00;;;;;;;10.33;7.93;;;11.60;99.90;;;;;;5084565;28;20563;-75
2022/05/08 04:17:45;;;;;;;11.73;8.90;;;11.50;99.90;;;;;;5091465;28;20422;-75
2022/05/08 04:20:31;;;;;;;9.77;8.77;;;11.50;99.90;;;;;;5085054;28;20953;-75
2022/05/08 04:26:21;;;;;;;8.87;7.97;;;11.60;99.90;;;;;;5089930;28;20442;-75
2022/05/08 04:29:07;;;;;;;10.70;7.97;;;11.80;99.90;;;;;;5080677;28;20440;-75
2022/05/08 04:31:52;;;;;;;15.37;8.03;;;11.90;99.90;;;;;;5089718;28;20441;-75
2022/05/08 04:34:38;;;;;;;10.67;8.83;;;12.00;99.90;;;;;;5088261;28;20470;-75
2022/05/08 04:37:24;;;;;;;19.30;9.03;;;12.00;99.90;;;;;;5087584;28;20450;-75
2022/05/08 04:40:11;;;;;;;9.53;8.53;;;12.10;99.90;;;;;;5083002;28;21062;-75
2022/05/08 04:42:58;;;;;;;9.83;8.83;;;12.30;99.90;;;;;;5089269;28;20422;-75
2022/05/08 04:45:44;;;;;;;9.30;8.30;;;12.50;99.90;;;;;;5095978;28;20457;-75
2022/05/08 04:48:29;;;;;;;9.70;7.43;;;12.70;99.90;;;;;;5085025;28;21157;-75
2022/05/08 04:51:15;;;;;;;12.57;7.70;;;12.90;99.90;;;;;;5087764;28;20498;-75
2022/05/08 04:54:01;;;;;;;8.83;7.87;;;13.10;99.90;;;;;;5089298;28;20458;-75
2022/05/08 04:56:46;;;;;;;9.77;8.03;;;13.20;99.90;;;;;;5090687;28;20442;-75
2022/05/08 04:59:33;;;;;;;8.10;7.30;;;13.20;99.90;;;;;;5083173;28;20450;-75
2022/05/08 05:02:19;;;;;;;9.83;8.83;;;13.40;99.90;;;;;;5088361;28;20503;-75
2022/05/08 05:05:06;;;;;;;9.03;7.90;;;13.60;99.90;;;;;;5083927;28;20588;-75
2022/05/08 05:07:52;;;;;;;12.40;7.57;;;13.70;99.90;;;;;;5079514;28;20450;-75
2022/05/08 05:10:37;;;;;;;8.57;7.67;;;13.80;99.90;;;;;;5091781;28;20473;-75
2022/05/08 05:13:23;;;;;;;7.77;6.87;;;13.90;99.90;;;;;;5099246;28;20913;-75
2022/05/08 05:16:09;;;;;;;9.80;8.37;;;14.00;99.90;;;;;;5079858;28;20516;-75
2022/05/08 05:18:55;;;;;;;10.60;8.30;;;14.10;99.90;;;;;;5077011;28;20458;-75
2022/05/08 05:21:41;;;;;;;10.77;7.80;;;14.20;99.90;;;;;;5081438;28;20577;-75
2022/05/08 05:24:26;;;;;;;9.10;8.20;;;14.40;99.90;;;;;;5086925;28;20799;-75
2022/05/08 05:27:12;;;;;;;9.87;8.67;;;14.60;99.90;;;;;;5085621;28;20442;-75
2022/05/08 05:29:58;;;;;;;9.83;8.83;;;14.70;99.90;;;;;;5080458;28;20952;-75
2022/05/08 05:32:45;;;;;;;14.40;9.50;;;14.80;99.90;;;;;;5084833;28;20392;-75
2022/05/08 05:35:31;;;;;;;12.00;8.57;;;15.00;99.90;;;;;;5083061;28;20632;-75
2022/05/08 05:38:17;;;;;;;14.30;7.50;;;15.10;99.90;;;;;;5095789;28;20516;-75
2022/05/08 05:41:02;;;;;;;9.70;8.20;;;15.20;99.90;;;;;;5090055;28;20434;-75
2022/05/08 05:43:48;;;;;;;12.43;8.40;;;15.30;99.90;;;;;;5091087;28;20474;-75
2022/05/08 05:49:39;;;;;;;10.97;7.63;;;15.60;99.90;;;;;;5089429;28;20914;-75
2022/05/08 05:52:24;;;;;;;9.20;8.20;;;15.70;99.90;;;;;;5086444;28;21173;-75
2022/05/08 05:55:11;;;;;;;9.07;7.57;;;15.80;99.90;;;;;;5087144;28;20580;-75
2022/05/08 05:57:57;;;;;;;9.80;7.73;;;15.80;99.90;;;;;;5083758;28;20461;-75
2022/05/08 06:00:42;;;;;;;10.67;8.43;;;15.90;99.90;;;;;;5092767;28;20449;-75
2022/05/08 06:03:28;;;;;;;13.00;7.93;;;15.90;99.90;;;;;;5093930;28;20429;-75
2022/05/08 06:06:15;;;;;;;9.67;7.70;;;15.90;99.90;;;;;;5088148;28;20453;-75
2022/05/08 06:09:01;;;;;;;9.83;7.30;;;16.00;99.90;;;;;;5092160;28;20508;-75
2022/05/08 06:11:46;;;;;;;10.80;7.70;;;16.00;99.90;;;;;;5104781;28;20409;-75
2022/05/08 06:14:32;;;;;;;10.13;7.93;;;16.10;99.90;;;;;;5084131;28;20941;-75
2022/05/08 06:17:17;;;;;;;7.57;6.77;;;16.10;99.90;;;;;;5087421;28;20778;-75
2022/05/08 06:20:03;;;;;;;10.43;6.43;;;16.10;99.90;;;;;;5088773;28;20415;-75
2022/05/08 06:22:50;;;;;;;8.67;7.43;;;16.10;99.90;;;;;;5100416;28;20421;-75
2022/05/08 06:25:41;;;;;;;8.07;6.43;;;16.10;99.90;;;;;;5096071;28;20998;-75
2022/05/08 06:28:27;;;;;;;8.03;6.50;;;16.10;99.90;;;;;;5094346;28;20441;-75
2022/05/08 06:31:15;;;;;;;11.50;7.00;;;16.20;99.90;;;;;;5085875;28;20448;-75
2022/05/08 06:34:01;;;;;;;7.60;5.80;;;16.40;99.90;;;;;;5088942;28;20465;-75
2022/05/08 06:36:46;;;;;;;7.03;6.10;;;16.40;99.90;;;;;;5100404;28;20444;-75
2022/05/08 06:39:34;;;;;;;7.60;6.40;;;16.60;99.90;;;;;;5103350;28;20418;-75
2022/05/08 06:42:19;;;;;;;9.67;6.70;;;16.70;99.90;;;;;;5109438;28;20437;-75
2022/05/08 06:45:06;;;;;;;10.47;7.40;;;16.70;99.90;;;;;;5091691;28;21001;-75
2022/05/08 06:47:51;;;;;;;8.70;7.20;;;16.90;99.90;;;;;;5087013;28;21008;-75
2022/05/08 06:50:37;;;;;;;11.43;6.20;;;17.00;99.90;;;;;;5092314;28;20996;-75
2022/05/08 06:53:23;;;;;;;6.27;5.43;;;17.00;99.90;;;;;;5097794;28;20552;-75
2022/05/08 06:56:12;;;;;;;7.00;6.10;;;17.00;98.90;;;;;;5088972;28;20465;-75
2022/05/08 07:02:01;;;;;;;7.53;6.77;;;17.10;98.60;;;;;;5088685;28;20509;-75
2022/05/08 07:04:46;;;;;;;8.53;5.97;;;17.10;98.40;;;;;;5089288;28;20465;-75
2022/05/08 07:07:32;;;;;;;9.10;5.83;;;17.20;98.00;;;;;;5082106;28;20797;-75
2022/05/08 07:10:18;;;;;;;13.37;7.30;;;17.20;98.70;;;;;;5094714;28;20439;-75
2022/05/08 07:13:05;;;;;;;9.80;6.80;;;17.20;98.40;;;;;;5091173;28;20531;-75
2022/05/08 07:15:51;;;;;;;9.83;6.00;;;17.30;96.80;;;;;;5089304;28;20868;-75
2022/05/08 07:18:37;;;;;;;8.60;6.60;;;17.40;96.20;;;;;;5084551;28;20811;-76
2022/05/08 07:21:23;;;;;;;8.30;6.57;;;17.40;96.00;;;;;;5095900;28;20428;-75
2022/05/08 07:24:09;;;;;;;6.90;6.20;;;17.40;94.60;;;;;;5085533;28;20473;-76
2022/05/08 07:26:57;;;;;;;10.30;7.00;;;17.50;94.50;;;;;;5088063;28;20927;-75
2022/05/08 07:29:44;;;;;;;8.43;5.80;;;17.50;94.30;;;;;;5085978;28;20438;-75
2022/05/08 07:32:30;;;;;;;8.40;6.13;;;17.60;93.60;;;;;;5085654;28;20441;-76
2022/05/08 07:38:21;;;;;;;7.93;6.07;;;17.70;92.90;;;;;;5088275;28;20435;-75
2022/05/08 07:41:07;;;;;;;9.53;5.73;;;17.80;93.10;;;;;;5078714;28;20446;-75
2022/05/08 07:43:53;;;;;;;6.37;5.60;;;17.90;93.50;;;;;;5081647;28;20495;-75
2022/05/08 07:46:40;;;;;;;10.43;5.83;;;17.90;93.30;;;;;;5079117;28;20533;-76
2022/05/08 07:49:26;;;;;;;6.57;5.23;;;18.00;92.50;;;;;;5085085;28;20966;-76
2022/05/08 07:52:12;;;;;;;10.53;5.93;;;18.00;92.00;;;;;;5089088;28;20424;-75
2022/05/08 07:54:57;;;;;;;7.70;6.50;;;18.10;91.50;;;;;;5089342;28;21008;-75
2022/05/08 07:57:43;;;;;;;7.20;5.60;;;18.10;91.70;;;;;;5085421;28;20458;-75
2022/05/08 08:00:28;;;;;;;7.00;6.20;;;18.10;92.10;;;;;;5087244;28;20442;-76
2022/05/08 08:03:16;;;;;;;6.93;5.87;;;18.00;92.30;;;;;;5091716;28;20898;-75
2022/05/08 08:06:02;;;;;;;6.77;6.07;;;18.00;92.50;;;;;;5084239;28;20758;-75
2022/05/08 08:08:48;;;;;;;7.73;6.50;;;18.00;92.40;;;;;;5091907;28;20867;-75
2022/05/08 08:11:34;;;;;;;8.73;6.23;;;17.90;92.70;;;;;;5090728;28;20462;-75
2022/05/08 08:14:20;;;;;;;7.50;5.90;;;18.00;93.00;;;;;;5084193;28;20465;-75
2022/05/08 08:17:08;;;;;;;7.33;6.37;;;18.10;93.20;;;;;;5088644;28;20441;-75
2022/05/08 08:19:55;;;;;;;7.87;5.83;;;18.20;92.20;;;;;;5078411;28;20438;-75
2022/05/08 08:22:41;;;;;;;7.40;6.07;;;18.30;92.30;;;;;;5084579;28;20437;-75
2022/05/08 08:25:27;;;;;;;9.50;6.27;;;18.30;91.90;;;;;;5079251;28;20505;-75
2022/05/08 08:28:12;;;;;;;8.93;6.03;;;18.30;92.00;;;;;;5081445;28;20441;-75
2022/05/08 08:30:58;;;;;;;7.93;5.70;;;18.40;92.10;;;;;;5096134;28;20483;-75
2022/05/08 08:33:44;;;;;;;10.70;5.80;;;18.40;92.40;;;;;;5091450;28;20811;-75
2022/05/08 08:36:32;;;;;;;8.93;5.60;;;18.40;92.30;;;;;;5082829;28;20467;-76
2022/05/08 08:39:18;;;;;;;10.77;6.30;;;18.40;92.20;;;;;;5086398;28;20798;-76
2022/05/08 08:42:22;;;;;;;9.10;6.17;;;18.50;91.70;;;;;;5083026;28;20441;-75
2022/05/08 08:48:25;;;;;;;9.20;5.93;;;18.70;92.00;;;;;;5075701;28;20513;-76
2022/05/08 08:51:13;;;;;;;7.30;5.70;;;18.90;93.40;;;;;;5085805;28;20485;-76
2022/05/08 08:54:00;;;;;;;8.23;5.60;;;19.10;92.90;;;;;;5084270;28;20465;-75
2022/05/08 08:56:46;;;;;;;7.93;5.40;;;19.30;91.40;;;;;;5087804;28;20495;-76
2022/05/08 08:59:31;;;;;;;8.10;5.60;;;19.50;91.50;;;;;;5085104;28;20824;-75
2022/05/08 09:02:18;;;;;;;6.13;5.53;;;19.70;90.00;;;;;;5089694;28;20434;-76
2022/05/08 09:05:07;;;;;;;12.17;5.00;;;19.80;90.00;;;;;;5078864;28;20566;-75
2022/05/08 09:07:54;;;;;;;10.50;5.10;;;20.00;89.10;;;;;;5094836;28;20983;-76
2022/05/08 09:10:44;;;;;;;6.57;5.50;;;20.10;88.10;;;;;;5093913;28;21002;-75
2022/05/08 09:13:31;;;;;;;7.30;5.20;;;20.30;84.10;;;;;;5082609;28;20441;-75
2022/05/08 09:16:16;;;;;;;7.57;4.47;;;20.40;84.70;;;;;;5087030;28;20424;-75
2022/05/08 09:19:02;;;;;;;7.23;5.90;;;20.50;83.20;;;;;;5094074;28;20424;-75
2022/05/08 09:21:56;;;;;;;6.70;4.97;;;20.60;82.30;;;;;;5092244;28;21066;-76
2022/05/08 09:24:52;;;;;;;8.43;4.50;;;20.70;81.30;;;;;;5086601;28;20478;-76
2022/05/08 09:27:40;;;;;;;9.73;5.77;;;20.90;80.60;;;;;;5096172;28;20579;-76
2022/05/08 09:30:26;;;;;;;6.80;5.20;;;21.00;75.40;;;;;;5080104;28;20823;-76
2022/05/08 09:33:22;;;;;;;6.37;5.00;;;21.10;72.50;;;;;;5092092;28;20461;-76
2022/05/08 09:36:11;;;;;;;8.70;5.80;;;21.30;74.00;;;;;;5081461;28;20580;-76
2022/05/08 09:38:57;;;;;;;5.90;5.13;;;21.40;73.80;;;;;;5088375;28;20957;-76
2022/05/08 09:41:43;;;;;;;5.97;5.03;;;21.40;74.00;;;;;;5088514;28;20446;-76
2022/05/08 09:44:30;;;;;;;5.37;4.87;;;21.60;73.40;;;;;;5079261;28;20488;-75
2022/05/08 09:47:40;;;;;;;9.10;4.90;;;21.70;66.70;;;;;;5090344;28;20454;-75
2022/05/08 09:50:27;;;;;;;5.80;5.10;;;21.70;63.60;;;;;;5085269;28;20535;-74
2022/05/08 09:53:16;;;;;;;5.63;4.87;;;21.70;69.50;;;;;;5085663;28;20457;-76
2022/05/08 09:56:04;;;;;;;7.57;5.60;;;21.80;65.30;;;;;;5078587;28;20426;-76
2022/05/08 09:58:50;;;;;;;5.47;4.33;;;21.70;63.00;;;;;;5094194;28;20619;-76
2022/05/08 10:01:39;;;;;;;5.93;4.60;;;21.80;62.30;;;;;;5086745;28;20430;-73
2022/05/08 10:04:25;;;;;;;5.40;4.30;;;21.90;59.80;;;;;;5091293;28;20462;-75
2022/05/08 10:07:13;;;;;;;5.73;4.60;;;21.90;61.90;;;;;;5085003;28;20428;-75
2022/05/08 10:16:45;;;;;;;6.00;4.40;;;22.10;57.90;;;;;;5084936;28;20440;-75
2022/05/08 10:19:45;;;;;;;6.30;4.33;;;22.00;56.60;;;;;;5102600;28;20433;-76
2022/05/08 10:22:47;;;;;;;8.53;4.33;;;21.90;58.80;;;;;;5093180;28;20564;-74
2022/05/08 10:25:33;;;;;;;7.70;5.10;;;21.80;60.00;;;;;;5083213;28;20523;-74
2022/05/08 10:28:18;;;;;;;7.73;4.70;;;21.70;61.60;;;;;;5103590;28;20445;-74
2022/05/08 10:31:45;;;;;;;6.03;4.90;;;21.70;62.60;;;;;;5096971;28;20464;-75
2022/05/08 10:34:32;;;;;;;8.53;5.67;;;21.80;61.40;;;;;;5095390;28;20461;-74
2022/05/08 10:37:28;;;;;;;11.90;4.67;;;21.80;63.00;;;;;;5083862;28;20441;-73
2022/05/08 10:40:32;;;;;;;6.13;4.17;;;21.70;57.90;;;;;;5083882;28;20791;-73
2022/05/08 10:43:32;;;;;;;6.00;4.57;;;21.70;56.00;;;;;;5084371;28;20448;-73
2022/05/08 10:46:24;;;;;;;5.30;4.80;;;21.50;56.80;;;;;;5085543;28;20417;-75
2022/05/08 10:49:12;;;;;;;7.57;4.57;;;21.40;60.40;;;;;;5087749;28;20450;-74
2022/05/08 10:52:08;;;;;;;5.60;4.50;;;21.30;59.50;;;;;;5083939;28;20543;-75
2022/05/08 10:54:57;;;;;;;6.00;4.53;;;21.20;58.90;;;;;;5090141;28;20538;-74
2022/05/08 10:57:44;;;;;;;7.83;4.27;;;21.20;60.10;;;;;;5103969;28;20529;-74
2022/05/08 11:00:31;;;;;;;5.73;4.50;;;21.40;56.60;;;;;;5090919;28;20430;-74
2022/05/08 11:03:22;;;;;;;12.40;5.00;;;21.70;58.70;;;;;;5094191;28;20587;-75
2022/05/08 11:06:09;;;;;;;4.67;4.07;;;22.10;53.40;;;;;;5095175;28;20441;-75
2022/05/08 11:09:00;;;;;;;6.33;4.40;;;22.40;54.30;;;;;;5088032;28;20426;-74
2022/05/08 11:11:47;;;;;;;9.27;3.90;;;22.50;52.70;;;;;;5086196;28;20557;-74
2022/05/08 11:14:32;;;;;;;5.60;3.60;;;22.50;54.50;;;;;;5084507;28;20445;-74
2022/05/08 11:17:19;;;;;;;4.87;3.43;;;22.60;51.00;;;;;;5101395;28;20429;-75
2022/05/08 11:20:05;;;;;;;5.70;4.10;;;22.70;49.20;;;;;;5090740;28;20504;-74
2022/05/08 11:22:56;;;;;;;7.73;3.93;;;22.80;47.50;;;;;;5089505;28;20449;-75
2022/05/08 11:25:45;;;;;;;6.20;3.50;;;23.00;46.20;;;;;;5102593;28;20448;-75
2022/05/08 11:28:32;;;;;;;6.00;4.00;;;23.10;48.40;;;;;;5098986;28;20491;-75
2022/05/08 11:31:19;;;;;;;5.93;3.90;;;23.40;45.70;;;;;;5101820;28;20582;-74
2022/05/08 11:37:31;;;;;;;4.50;3.63;;;23.40;45.40;;;;;;5008544;28;20463;-75
2022/05/08 11:40:19;;;;;;;5.50;4.00;;;23.30;45.40;;;;;;5018830;28;20420;-74
2022/05/08 11:43:05;;;;;;;6.10;4.50;;;23.30;45.20;;;;;;5071318;28;21155;-75
2022/05/08 11:45:59;;;;;;;6.30;4.30;;;23.30;44.30;;;;;;5092703;28;20440;-75
2022/05/08 11:48:46;;;;;;;7.00;4.53;;;23.20;48.20;;;;;;5096971;28;20934;-75
2022/05/08 11:51:43;;;;;;;5.80;4.63;;;23.20;44.70;;;;;;5093342;28;20478;-74
2022/05/08 11:54:32;;;;;;;5.07;4.07;;;23.10;45.40;;;;;;5097195;28;20475;-75
2022/05/08 11:57:21;;;;;;;5.40;4.10;;;22.90;48.00;;;;;;5096829;28;20953;-74
2022/05/08 12:00:10;;;;;;;6.97;4.37;;;22.70;46.50;;;;;;5104482;28;20510;-76
2022/05/08 12:02:55;;;;;;;8.17;4.30;;;22.50;47.80;;;;;;5083772;28;20422;-74
2022/05/08 12:05:41;;;;;;;6.60;4.43;;;22.60;47.40;;;;;;5095854;28;20520;-75
2022/05/08 12:08:27;;;;;;;6.73;3.80;;;22.70;47.00;;;;;;5104313;28;20445;-74
2022/05/08 12:11:34;;;;;;;8.67;4.07;;;22.70;44.40;;;;;;5084565;28;20450;-74
2022/05/08 12:14:31;;;;;;;9.33;4.20;;;22.80;45.20;;;;;;5093574;28;20438;-74
2022/05/08 12:17:17;;;;;;;4.80;3.27;;;23.10;45.30;;;;;;5089642;28;20458;-75
2022/05/08 12:20:09;;;;;;;4.33;3.30;;;23.40;43.20;;;;;;5093107;28;20843;-75
2022/05/08 12:22:59;;;;;;;5.20;4.00;;;23.70;46.10;;;;;;5086293;28;20770;-75
2022/05/08 12:25:45;;;;;;;7.20;4.00;;;24.00;40.80;;;;;;5101404;28;20438;-75
2022/05/08 12:28:44;;;;;;;6.17;4.43;;;24.30;41.20;;;;;;5103269;28;20818;-74
2022/05/08 12:31:31;;;;;;;6.10;4.30;;;24.40;43.70;;;;;;5081347;28;20471;-74
2022/05/08 12:34:18;;;;;;;4.70;3.70;;;24.60;41.20;;;;;;5086978;28;20449;-75
2022/05/08 12:37:04;;;;;;;5.90;3.63;;;24.70;44.60;;;;;;5096513;28;20789;-75
2022/05/08 12:39:50;;;;;;;5.73;3.47;;;24.80;39.60;;;;;;5095802;28;20421;-75
2022/05/08 12:42:36;;;;;;;4.90;3.80;;;24.80;39.20;;;;;;5088625;28;20761;-74
2022/05/08 12:45:21;;;;;;;6.40;3.77;;;24.70;41.70;;;;;;5091647;28;20451;-75
2022/05/08 12:48:11;;;;;;;5.73;3.47;;;24.60;41.00;;;;;;5093078;28;20427;-75
2022/05/08 12:50:56;;;;;;;5.73;3.53;;;24.60;44.50;;;;;;5086482;28;20527;-75
2022/05/08 12:53:42;;;;;;;4.80;3.63;;;24.70;40.30;;;;;;5100703;28;20946;-74
2022/05/08 12:56:29;;;;;;;8.97;4.13;;;24.90;39.10;;;;;;5100118;28;20523;-75
2022/05/08 13:02:20;;;;;;;10.20;3.60;;;25.40;37.90;;;;;;5102817;28;20417;-75
2022/05/08 13:05:08;;;;;;;5.83;3.40;;;25.50;36.10;;;;;;5094929;28;20564;-75
2022/05/08 13:07:53;;;;;;;6.47;4.20;;;25.70;37.70;;;;;;5097791;28;20425;-75
2022/05/08 13:10:39;;;;;;;8.63;3.60;;;25.80;37.60;;;;;;5088974;28;20446;-75
2022/05/08 13:13:25;;;;;;;4.00;3.23;;;25.80;37.60;;;;;;5093268;28;20620;-74
2022/05/08 13:16:14;;;;;;;6.83;3.87;;;25.50;36.00;;;;;;5090294;28;20433;-75
2022/05/08 13:19:00;;;;;;;3.80;3.37;;;25.30;38.20;;;;;;5090694;28;20421;-75
2022/05/08 13:21:49;;;;;;;6.67;3.80;;;24.90;37.60;;;;;;5086868;28;21010;-74
2022/05/08 13:24:36;;;;;;;6.20;4.20;;;24.40;37.70;;;;;;5095027;28;20466;-75
2022/05/08 13:27:21;;;;;;;5.27;3.70;;;24.00;38.30;;;;;;5093508;28;20474;-74
2022/05/08 13:30:10;;;;;;;4.80;4.13;;;23.60;40.60;;;;;;5093315;28;20448;-75
2022/05/08 13:32:55;;;;;;;4.57;3.90;;;23.40;41.50;;;;;;5092981;28;20482;-75
2022/05/08 13:35:41;;;;;;;4.47;3.60;;;23.20;43.00;;;;;;5094236;28;20919;-75
2022/05/08 13:38:28;;;;;;;11.43;3.80;;;23.10;42.10;;;;;;5087587;28;20419;-74
2022/05/08 13:41:15;;;;;;;7.73;3.97;;;23.00;42.80;;;;;;5092171;28;20429;-75
2022/05/08 13:44:02;;;;;;;4.77;3.70;;;22.90;42.70;;;;;;5088186;28;20437;-74
2022/05/08 13:46:48;;;;;;;4.53;3.80;;;22.80;42.60;;;;;;5105097;28;20983;-75
2022/05/08 13:49:36;;;;;;;5.37;3.80;;;22.80;45.60;;;;;;5091040;28;20446;-75
2022/05/08 13:52:22;;;;;;;4.80;4.10;;;22.70;45.10;;;;;;5102725;28;20468;-74
2022/05/08 13:55:13;;;;;;;5.20;3.60;;;22.60;44.70;;;;;;5092481;28;20442;-75
2022/05/08 13:57:59;;;;;;;6.87;3.90;;;22.50;43.40;;;;;;5087936;28;20416;-74
2022/05/08 14:00:49;;;;;;;6.43;3.30;;;22.40;43.50;;;;;;5093401;28;20449;-75
2022/05/08 14:03:35;;;;;;;9.93;3.87;;;22.60;43.20;;;;;;5094994;28;20418;-75
2022/05/08 14:06:21;;;;;;;6.27;3.97;;;22.70;44.70;;;;;;5104230;28;20425;-75
2022/05/08 14:09:06;;;;;;;6.13;3.60;;;22.70;44.90;;;;;;5084707;28;20450;-75
2022/05/08 14:11:54;;;;;;;6.17;4.07;;;22.60;45.90;;;;;;5101123;28;20485;-75
2022/05/08 14:14:39;;;;;;;6.00;4.13;;;22.50;45.20;;;;;;5103991;28;20473;-74
2022/05/08 14:17:25;;;;;;;6.73;3.80;;;22.50;46.30;;;;;;5092407;28;20415;-75
2022/05/08 14:20:11;;;;;;;8.57;4.33;;;22.40;45.70;;;;;;5082646;28;20447;-75
2022/05/08 14:22:57;;;;;;;5.93;3.60;;;22.30;46.50;;;;;;5097536;28;20422;-75
2022/05/08 14:25:42;;;;;;;5.80;4.80;;;22.40;46.20;;;;;;5095195;28;20504;-76
2022/05/08 14:28:29;;;;;;;7.43;4.40;;;22.60;47.30;;;;;;5092972;28;20445;-75
2022/05/08 14:37:22;;;;;;;5.60;4.43;;;23.40;51.20;;;;;;5101746;28;20440;-74
2022/05/08 14:40:09;;;;;;;7.50;4.57;;;23.60;52.60;;;;;;5101806;28;20462;-75
2022/05/08 14:42:55;;;;;;;5.20;3.40;;;23.70;53.30;;;;;;5088295;28;20416;-75
2022/05/08 14:45:42;;;;;;;6.50;4.03;;;23.80;49.00;;;;;;5108673;28;20448;-75
2022/05/08 14:48:28;;;;;;;5.33;3.80;;;23.70;49.10;;;;;;5094637;28;20500;-75
2022/05/08 14:51:14;;;;;;;6.07;3.77;;;23.30;49.50;;;;;;5096224;28;20483;-75
2022/05/08 14:53:59;;;;;;;4.50;3.57;;;23.10;49.10;;;;;;5102514;28;20473;-75
2022/05/08 14:56:45;;;;;;;8.63;3.93;;;23.10;49.80;;;;;;5100853;28;20422;-75
2022/05/08 14:59:31;;;;;;;5.20;3.47;;;23.20;51.70;;;;;;5088175;28;20450;-75
2022/05/08 15:02:17;;;;;;;12.30;3.73;;;23.30;50.80;;;;;;5097597;28;20426;-75
2022/05/08 15:05:03;;;;;;;5.63;3.07;;;23.50;50.00;;;;;;5089594;28;20509;-75
2022/05/08 15:07:49;;;;;;;12.37;3.30;;;23.70;49.20;;;;;;5099344;28;20445;-75
2022/05/08 15:10:35;;;;;;;4.87;3.50;;;23.70;49.70;;;;;;5092512;28;20493;-75
2022/05/08 15:13:21;;;;;;;6.97;2.97;;;23.70;47.00;;;;;;5105189;28;20464;-75